sensor_id;sensor_type;location;lat;lon;timestamp;P1;durP1;ratioP1;P2;durP2;ratioP2
16792;SDS011;8513;42.662;23.350;2023-12-20T00:00:20;41.27;;;31.43;;
16792;SDS011;8513;42.662;23.350;2023-12-20T00:02:45;47.77;;;33.90;;
16792;SDS011;8513;42.662;23.350;2023-12-20T00:05:12;42.50;;;31.97;;
16792;SDS011;8513;42.662;23.350;2023-12-20T00:07:39;41.30;;;31.97;;
16792;SDS011;8513;42.662;23.350;2023-12-20T00:10:04;39.33;;;29.70;;
16792;SDS011;8513;42.662;23.350;2023-12-20T00:12:30;40.90;;;31.93;;
16792;SDS011;8513;42.662;23.350;2023-12-20T00:14:55;44.13;;;34.17;;
16792;SDS011;8513;42.662;23.350;2023-12-20T00:17:21;42.13;;;33.90;;
16792;SDS011;8513;42.662;23.350;2023-12-20T00:19:46;43.50;;;33.77;;
16792;SDS011;8513;42.662;23.350;2023-12-20T00:22:12;40.43;;;30.83;;
16792;SDS011;8513;42.662;23.350;2023-12-20T00:24:37;41.00;;;32.33;;
16792;SDS011;8513;42.662;23.350;2023-12-20T00:27:03;43.03;;;32.57;;
16792;SDS011;8513;42.662;23.350;2023-12-20T00:29:28;39.50;;;31.57;;
16792;SDS011;8513;42.662;23.350;2023-12-20T00:31:54;38.37;;;31.87;;
16792;SDS011;8513;42.662;23.350;2023-12-20T00:34:19;38.83;;;30.77;;
16792;SDS011;8513;42.662;23.350;2023-12-20T00:36:44;40.37;;;29.73;;
16792;SDS011;8513;42.662;23.350;2023-12-20T00:39:10;41.17;;;31.93;;
16792;SDS011;8513;42.662;23.350;2023-12-20T00:41:35;42.30;;;32.13;;
16792;SDS011;8513;42.662;23.350;2023-12-20T00:44:00;39.70;;;30.37;;
16792;SDS011;8513;42.662;23.350;2023-12-20T00:46:26;35.27;;;28.73;;
16792;SDS011;8513;42.662;23.350;2023-12-20T00:48:51;37.77;;;28.70;;
16792;SDS011;8513;42.662;23.350;2023-12-20T00:51:17;38.43;;;30.27;;
16792;SDS011;8513;42.662;23.350;2023-12-20T00:53:42;36.93;;;29.97;;
16792;SDS011;8513;42.662;23.350;2023-12-20T00:56:08;36.17;;;27.73;;
16792;SDS011;8513;42.662;23.350;2023-12-20T00:58:33;36.60;;;28.40;;
16792;SDS011;8513;42.662;23.350;2023-12-20T01:00:59;34.07;;;26.50;;
16792;SDS011;8513;42.662;23.350;2023-12-20T01:03:24;38.03;;;28.60;;
16792;SDS011;8513;42.662;23.350;2023-12-20T01:05:50;37.10;;;29.10;;
16792;SDS011;8513;42.662;23.350;2023-12-20T01:08:15;37.30;;;28.90;;
16792;SDS011;8513;42.662;23.350;2023-12-20T01:10:41;37.13;;;29.47;;
16792;SDS011;8513;42.662;23.350;2023-12-20T01:13:06;33.90;;;28.80;;
16792;SDS011;8513;42.662;23.350;2023-12-20T01:15:32;41.60;;;30.60;;
16792;SDS011;8513;42.662;23.350;2023-12-20T01:17:57;39.37;;;31.30;;
16792;SDS011;8513;42.662;23.350;2023-12-20T01:20:24;44.70;;;33.53;;
16792;SDS011;8513;42.662;23.350;2023-12-20T01:22:49;40.07;;;31.27;;
16792;SDS011;8513;42.662;23.350;2023-12-20T01:25:15;43.50;;;32.60;;
16792;SDS011;8513;42.662;23.350;2023-12-20T01:27:40;41.93;;;32.87;;
16792;SDS011;8513;42.662;23.350;2023-12-20T01:30:06;41.10;;;31.80;;
16792;SDS011;8513;42.662;23.350;2023-12-20T01:32:32;41.00;;;31.10;;
16792;SDS011;8513;42.662;23.350;2023-12-20T01:34:57;41.27;;;32.30;;
16792;SDS011;8513;42.662;23.350;2023-12-20T01:37:23;41.90;;;32.53;;
16792;SDS011;8513;42.662;23.350;2023-12-20T01:39:50;42.87;;;31.67;;
16792;SDS011;8513;42.662;23.350;2023-12-20T01:42:15;39.97;;;30.80;;
16792;SDS011;8513;42.662;23.350;2023-12-20T01:44:41;38.97;;;29.07;;
16792;SDS011;8513;42.662;23.350;2023-12-20T01:47:06;38.10;;;27.50;;
16792;SDS011;8513;42.662;23.350;2023-12-20T01:49:33;38.43;;;27.50;;
16792;SDS011;8513;42.662;23.350;2023-12-20T01:51:58;38.97;;;28.60;;
16792;SDS011;8513;42.662;23.350;2023-12-20T01:54:24;34.37;;;28.40;;
16792;SDS011;8513;42.662;23.350;2023-12-20T01:56:50;36.67;;;27.20;;
16792;SDS011;8513;42.662;23.350;2023-12-20T01:59:15;35.17;;;25.87;;
16792;SDS011;8513;42.662;23.350;2023-12-20T02:01:42;36.07;;;29.13;;
16792;SDS011;8513;42.662;23.350;2023-12-20T02:04:08;39.00;;;30.83;;
16792;SDS011;8513;42.662;23.350;2023-12-20T02:06:33;41.13;;;30.93;;
16792;SDS011;8513;42.662;23.350;2023-12-20T02:08:59;43.67;;;32.57;;
16792;SDS011;8513;42.662;23.350;2023-12-20T02:11:25;43.03;;;32.27;;
16792;SDS011;8513;42.662;23.350;2023-12-20T02:13:51;38.97;;;31.70;;
16792;SDS011;8513;42.662;23.350;2023-12-20T02:16:17;39.33;;;31.13;;
16792;SDS011;8513;42.662;23.350;2023-12-20T02:18:43;40.37;;;32.60;;
16792;SDS011;8513;42.662;23.350;2023-12-20T02:21:09;39.23;;;30.93;;
16792;SDS011;8513;42.662;23.350;2023-12-20T02:23:35;38.07;;;31.53;;
16792;SDS011;8513;42.662;23.350;2023-12-20T02:26:00;37.77;;;31.20;;
16792;SDS011;8513;42.662;23.350;2023-12-20T02:28:27;39.93;;;31.47;;
16792;SDS011;8513;42.662;23.350;2023-12-20T02:30:52;43.83;;;33.63;;
16792;SDS011;8513;42.662;23.350;2023-12-20T02:33:18;43.87;;;34.10;;
16792;SDS011;8513;42.662;23.350;2023-12-20T02:35:43;42.87;;;33.37;;
16792;SDS011;8513;42.662;23.350;2023-12-20T02:38:09;40.67;;;32.40;;
16792;SDS011;8513;42.662;23.350;2023-12-20T02:40:34;37.93;;;30.37;;
16792;SDS011;8513;42.662;23.350;2023-12-20T02:43:00;42.57;;;34.10;;
16792;SDS011;8513;42.662;23.350;2023-12-20T02:45:26;42.83;;;32.87;;
16792;SDS011;8513;42.662;23.350;2023-12-20T02:47:52;40.03;;;34.10;;
16792;SDS011;8513;42.662;23.350;2023-12-20T02:50:17;44.33;;;32.07;;
16792;SDS011;8513;42.662;23.350;2023-12-20T02:52:44;43.90;;;33.93;;
16792;SDS011;8513;42.662;23.350;2023-12-20T02:55:10;48.50;;;37.33;;
16792;SDS011;8513;42.662;23.350;2023-12-20T02:57:36;49.33;;;38.40;;
16792;SDS011;8513;42.662;23.350;2023-12-20T03:00:06;45.90;;;38.57;;
16792;SDS011;8513;42.662;23.350;2023-12-20T03:02:35;52.30;;;40.57;;
16792;SDS011;8513;42.662;23.350;2023-12-20T03:05:01;55.17;;;44.00;;
16792;SDS011;8513;42.662;23.350;2023-12-20T03:07:27;58.13;;;46.93;;
16792;SDS011;8513;42.662;23.350;2023-12-20T03:09:53;67.10;;;53.50;;
16792;SDS011;8513;42.662;23.350;2023-12-20T03:12:18;79.77;;;65.10;;
16792;SDS011;8513;42.662;23.350;2023-12-20T03:14:44;96.23;;;71.83;;
16792;SDS011;8513;42.662;23.350;2023-12-20T03:17:09;101.27;;;77.93;;
16792;SDS011;8513;42.662;23.350;2023-12-20T03:19:36;94.00;;;75.37;;
16792;SDS011;8513;42.662;23.350;2023-12-20T03:22:02;103.07;;;79.77;;
16792;SDS011;8513;42.662;23.350;2023-12-20T03:24:27;114.10;;;89.50;;
16792;SDS011;8513;42.662;23.350;2023-12-20T03:26:53;113.13;;;90.03;;
16792;SDS011;8513;42.662;23.350;2023-12-20T03:29:18;120.07;;;87.47;;
16792;SDS011;8513;42.662;23.350;2023-12-20T03:31:44;104.83;;;83.87;;
16792;SDS011;8513;42.662;23.350;2023-12-20T03:34:10;106.80;;;87.20;;
16792;SDS011;8513;42.662;23.350;2023-12-20T03:36:36;109.43;;;85.37;;
16792;SDS011;8513;42.662;23.350;2023-12-20T03:39:01;106.73;;;85.57;;
16792;SDS011;8513;42.662;23.350;2023-12-20T03:41:27;104.93;;;81.27;;
16792;SDS011;8513;42.662;23.350;2023-12-20T03:43:53;113.80;;;89.00;;
16792;SDS011;8513;42.662;23.350;2023-12-20T03:46:18;106.83;;;82.03;;
16792;SDS011;8513;42.662;23.350;2023-12-20T03:48:44;100.70;;;78.60;;
16792;SDS011;8513;42.662;23.350;2023-12-20T03:51:09;102.40;;;82.00;;
16792;SDS011;8513;42.662;23.350;2023-12-20T03:53:35;104.90;;;80.03;;
16792;SDS011;8513;42.662;23.350;2023-12-20T03:56:00;102.90;;;79.30;;
16792;SDS011;8513;42.662;23.350;2023-12-20T03:58:26;99.03;;;78.40;;
16792;SDS011;8513;42.662;23.350;2023-12-20T04:00:51;102.67;;;78.77;;
16792;SDS011;8513;42.662;23.350;2023-12-20T04:03:17;102.50;;;79.43;;
16792;SDS011;8513;42.662;23.350;2023-12-20T04:05:42;103.07;;;79.10;;
16792;SDS011;8513;42.662;23.350;2023-12-20T04:08:08;99.30;;;67.53;;
16792;SDS011;8513;42.662;23.350;2023-12-20T04:10:34;96.23;;;67.63;;
16792;SDS011;8513;42.662;23.350;2023-12-20T04:13:00;98.13;;;77.73;;
16792;SDS011;8513;42.662;23.350;2023-12-20T04:15:25;102.00;;;79.90;;
16792;SDS011;8513;42.662;23.350;2023-12-20T04:17:51;100.07;;;77.33;;
16792;SDS011;8513;42.662;23.350;2023-12-20T04:20:16;95.90;;;74.60;;
16792;SDS011;8513;42.662;23.350;2023-12-20T04:22:41;95.70;;;73.23;;
16792;SDS011;8513;42.662;23.350;2023-12-20T04:25:07;91.50;;;69.70;;
16792;SDS011;8513;42.662;23.350;2023-12-20T04:27:33;93.90;;;72.67;;
16792;SDS011;8513;42.662;23.350;2023-12-20T04:29:59;88.90;;;72.33;;
16792;SDS011;8513;42.662;23.350;2023-12-20T04:32:24;98.33;;;74.53;;
16792;SDS011;8513;42.662;23.350;2023-12-20T04:34:50;89.10;;;70.80;;
16792;SDS011;8513;42.662;23.350;2023-12-20T04:37:15;91.60;;;72.40;;
16792;SDS011;8513;42.662;23.350;2023-12-20T04:39:41;90.43;;;73.80;;
16792;SDS011;8513;42.662;23.350;2023-12-20T04:42:06;96.93;;;74.13;;
16792;SDS011;8513;42.662;23.350;2023-12-20T04:44:32;94.43;;;72.33;;
16792;SDS011;8513;42.662;23.350;2023-12-20T04:46:57;99.83;;;75.90;;
16792;SDS011;8513;42.662;23.350;2023-12-20T04:49:23;90.50;;;70.23;;
16792;SDS011;8513;42.662;23.350;2023-12-20T04:51:48;91.43;;;68.93;;
16792;SDS011;8513;42.662;23.350;2023-12-20T04:54:14;94.13;;;72.67;;
16792;SDS011;8513;42.662;23.350;2023-12-20T04:56:39;91.17;;;69.07;;
16792;SDS011;8513;42.662;23.350;2023-12-20T04:59:05;85.00;;;68.20;;
16792;SDS011;8513;42.662;23.350;2023-12-20T05:01:30;87.47;;;69.83;;
16792;SDS011;8513;42.662;23.350;2023-12-20T05:03:56;90.23;;;69.13;;
16792;SDS011;8513;42.662;23.350;2023-12-20T05:06:21;82.70;;;64.03;;
16792;SDS011;8513;42.662;23.350;2023-12-20T05:08:47;85.23;;;63.57;;
16792;SDS011;8513;42.662;23.350;2023-12-20T05:11:12;76.97;;;60.70;;
16792;SDS011;8513;42.662;23.350;2023-12-20T05:13:40;75.33;;;60.63;;
16792;SDS011;8513;42.662;23.350;2023-12-20T05:16:05;69.83;;;50.33;;
16792;SDS011;8513;42.662;23.350;2023-12-20T05:18:31;72.67;;;57.90;;
16792;SDS011;8513;42.662;23.350;2023-12-20T05:20:56;71.70;;;57.33;;
16792;SDS011;8513;42.662;23.350;2023-12-20T05:23:22;74.00;;;57.03;;
16792;SDS011;8513;42.662;23.350;2023-12-20T05:25:47;75.03;;;57.90;;
16792;SDS011;8513;42.662;23.350;2023-12-20T05:28:13;70.17;;;57.00;;
16792;SDS011;8513;42.662;23.350;2023-12-20T05:30:40;73.87;;;57.33;;
16792;SDS011;8513;42.662;23.350;2023-12-20T05:33:05;71.67;;;55.93;;
16792;SDS011;8513;42.662;23.350;2023-12-20T05:35:30;69.47;;;55.63;;
16792;SDS011;8513;42.662;23.350;2023-12-20T05:37:56;68.93;;;52.47;;
16792;SDS011;8513;42.662;23.350;2023-12-20T05:40:21;72.87;;;54.97;;
16792;SDS011;8513;42.662;23.350;2023-12-20T05:42:47;71.13;;;53.23;;
16792;SDS011;8513;42.662;23.350;2023-12-20T05:45:14;72.57;;;54.53;;
16792;SDS011;8513;42.662;23.350;2023-12-20T05:47:40;75.07;;;55.50;;
16792;SDS011;8513;42.662;23.350;2023-12-20T05:50:05;79.40;;;56.73;;
16792;SDS011;8513;42.662;23.350;2023-12-20T05:52:31;77.90;;;55.03;;
16792;SDS011;8513;42.662;23.350;2023-12-20T05:54:56;74.77;;;53.73;;
16792;SDS011;8513;42.662;23.350;2023-12-20T05:57:26;78.47;;;52.60;;
16792;SDS011;8513;42.662;23.350;2023-12-20T05:59:51;72.17;;;48.07;;
16792;SDS011;8513;42.662;23.350;2023-12-20T06:02:16;73.67;;;53.20;;
16792;SDS011;8513;42.662;23.350;2023-12-20T06:04:42;72.43;;;51.40;;
16792;SDS011;8513;42.662;23.350;2023-12-20T06:07:10;71.43;;;49.23;;
16792;SDS011;8513;42.662;23.350;2023-12-20T06:09:37;67.73;;;47.63;;
16792;SDS011;8513;42.662;23.350;2023-12-20T06:12:02;76.40;;;48.43;;
16792;SDS011;8513;42.662;23.350;2023-12-20T06:14:27;67.50;;;48.30;;
16792;SDS011;8513;42.662;23.350;2023-12-20T06:16:53;71.80;;;49.90;;
16792;SDS011;8513;42.662;23.350;2023-12-20T06:19:18;71.50;;;49.70;;
16792;SDS011;8513;42.662;23.350;2023-12-20T06:21:44;67.60;;;48.50;;
16792;SDS011;8513;42.662;23.350;2023-12-20T06:24:09;63.53;;;46.53;;
16792;SDS011;8513;42.662;23.350;2023-12-20T06:26:35;63.87;;;46.17;;
16792;SDS011;8513;42.662;23.350;2023-12-20T06:29:00;62.53;;;45.00;;
16792;SDS011;8513;42.662;23.350;2023-12-20T06:31:26;63.53;;;44.60;;
16792;SDS011;8513;42.662;23.350;2023-12-20T06:33:51;58.03;;;43.80;;
16792;SDS011;8513;42.662;23.350;2023-12-20T06:36:26;57.23;;;42.10;;
16792;SDS011;8513;42.662;23.350;2023-12-20T06:38:51;56.80;;;42.00;;
16792;SDS011;8513;42.662;23.350;2023-12-20T06:41:17;55.23;;;42.20;;
16792;SDS011;8513;42.662;23.350;2023-12-20T06:43:43;53.27;;;37.67;;
16792;SDS011;8513;42.662;23.350;2023-12-20T06:46:09;54.23;;;39.47;;
16792;SDS011;8513;42.662;23.350;2023-12-20T06:48:34;54.60;;;40.57;;
16792;SDS011;8513;42.662;23.350;2023-12-20T06:51:00;56.70;;;39.60;;
16792;SDS011;8513;42.662;23.350;2023-12-20T06:53:29;47.77;;;33.33;;
16792;SDS011;8513;42.662;23.350;2023-12-20T06:55:55;52.97;;;34.47;;
16792;SDS011;8513;42.662;23.350;2023-12-20T06:58:24;50.23;;;37.00;;
16792;SDS011;8513;42.662;23.350;2023-12-20T07:00:49;55.03;;;38.90;;
16792;SDS011;8513;42.662;23.350;2023-12-20T07:03:15;54.43;;;39.20;;
16792;SDS011;8513;42.662;23.350;2023-12-20T07:05:41;50.83;;;36.87;;
16792;SDS011;8513;42.662;23.350;2023-12-20T07:08:07;51.67;;;38.33;;
16792;SDS011;8513;42.662;23.350;2023-12-20T07:10:32;52.20;;;36.97;;
16792;SDS011;8513;42.662;23.350;2023-12-20T07:12:58;51.97;;;34.20;;
16792;SDS011;8513;42.662;23.350;2023-12-20T07:15:23;55.87;;;38.20;;
16792;SDS011;8513;42.662;23.350;2023-12-20T07:17:49;59.40;;;44.57;;
16792;SDS011;8513;42.662;23.350;2023-12-20T07:20:14;62.53;;;43.73;;
16792;SDS011;8513;42.662;23.350;2023-12-20T07:22:40;65.53;;;45.13;;
16792;SDS011;8513;42.662;23.350;2023-12-20T07:25:05;65.37;;;44.73;;
16792;SDS011;8513;42.662;23.350;2023-12-20T07:27:31;63.30;;;45.00;;
16792;SDS011;8513;42.662;23.350;2023-12-20T07:29:57;70.43;;;48.40;;
16792;SDS011;8513;42.662;23.350;2023-12-20T07:32:22;70.27;;;49.07;;
16792;SDS011;8513;42.662;23.350;2023-12-20T07:34:48;74.37;;;50.47;;
16792;SDS011;8513;42.662;23.350;2023-12-20T07:37:13;65.13;;;47.07;;
16792;SDS011;8513;42.662;23.350;2023-12-20T07:39:41;66.23;;;46.50;;
16792;SDS011;8513;42.662;23.350;2023-12-20T07:42:07;63.77;;;45.87;;
16792;SDS011;8513;42.662;23.350;2023-12-20T07:44:33;68.27;;;48.87;;
16792;SDS011;8513;42.662;23.350;2023-12-20T07:47:00;66.70;;;48.90;;
16792;SDS011;8513;42.662;23.350;2023-12-20T07:49:26;72.63;;;49.80;;
16792;SDS011;8513;42.662;23.350;2023-12-20T07:51:52;67.57;;;49.27;;
16792;SDS011;8513;42.662;23.350;2023-12-20T07:54:17;63.13;;;45.17;;
16792;SDS011;8513;42.662;23.350;2023-12-20T07:56:43;61.23;;;42.83;;
16792;SDS011;8513;42.662;23.350;2023-12-20T07:59:08;59.67;;;40.23;;
16792;SDS011;8513;42.662;23.350;2023-12-20T08:01:34;57.77;;;40.47;;
16792;SDS011;8513;42.662;23.350;2023-12-20T08:03:59;56.13;;;39.90;;
16792;SDS011;8513;42.662;23.350;2023-12-20T08:06:25;57.20;;;38.67;;
16792;SDS011;8513;42.662;23.350;2023-12-20T08:08:50;53.73;;;38.40;;
16792;SDS011;8513;42.662;23.350;2023-12-20T08:11:15;49.40;;;35.20;;
16792;SDS011;8513;42.662;23.350;2023-12-20T08:13:41;52.53;;;37.97;;
16792;SDS011;8513;42.662;23.350;2023-12-20T08:16:06;50.27;;;36.43;;
16792;SDS011;8513;42.662;23.350;2023-12-20T08:18:32;49.10;;;36.10;;
16792;SDS011;8513;42.662;23.350;2023-12-20T08:20:57;51.43;;;35.40;;
16792;SDS011;8513;42.662;23.350;2023-12-20T08:23:23;51.07;;;35.70;;
16792;SDS011;8513;42.662;23.350;2023-12-20T08:25:48;48.80;;;34.47;;
16792;SDS011;8513;42.662;23.350;2023-12-20T08:28:14;46.23;;;32.77;;
16792;SDS011;8513;42.662;23.350;2023-12-20T08:30:39;46.80;;;34.00;;
16792;SDS011;8513;42.662;23.350;2023-12-20T08:33:05;47.30;;;33.13;;
16792;SDS011;8513;42.662;23.350;2023-12-20T08:35:36;49.10;;;34.03;;
16792;SDS011;8513;42.662;23.350;2023-12-20T08:38:01;44.07;;;32.60;;
16792;SDS011;8513;42.662;23.350;2023-12-20T08:40:27;43.83;;;32.00;;
16792;SDS011;8513;42.662;23.350;2023-12-20T08:42:52;51.13;;;33.00;;
16792;SDS011;8513;42.662;23.350;2023-12-20T08:45:18;49.53;;;34.07;;
16792;SDS011;8513;42.662;23.350;2023-12-20T08:47:43;52.43;;;34.17;;
16792;SDS011;8513;42.662;23.350;2023-12-20T08:50:10;51.20;;;35.87;;
16792;SDS011;8513;42.662;23.350;2023-12-20T08:52:35;53.83;;;35.00;;
16792;SDS011;8513;42.662;23.350;2023-12-20T08:55:01;53.53;;;36.03;;
16792;SDS011;8513;42.662;23.350;2023-12-20T08:57:26;57.70;;;35.77;;
16792;SDS011;8513;42.662;23.350;2023-12-20T08:59:52;55.40;;;36.13;;
16792;SDS011;8513;42.662;23.350;2023-12-20T09:02:17;58.20;;;38.20;;
16792;SDS011;8513;42.662;23.350;2023-12-20T09:04:43;61.97;;;39.07;;
16792;SDS011;8513;42.662;23.350;2023-12-20T09:07:27;67.17;;;39.70;;
16792;SDS011;8513;42.662;23.350;2023-12-20T09:09:55;62.57;;;38.00;;
16792;SDS011;8513;42.662;23.350;2023-12-20T09:12:20;59.33;;;38.07;;
16792;SDS011;8513;42.662;23.350;2023-12-20T09:14:47;61.00;;;37.60;;
16792;SDS011;8513;42.662;23.350;2023-12-20T09:17:12;66.50;;;38.30;;
16792;SDS011;8513;42.662;23.350;2023-12-20T09:19:38;64.97;;;37.80;;
16792;SDS011;8513;42.662;23.350;2023-12-20T09:22:04;60.60;;;37.50;;
16792;SDS011;8513;42.662;23.350;2023-12-20T09:24:30;62.40;;;38.17;;
16792;SDS011;8513;42.662;23.350;2023-12-20T09:26:55;64.27;;;39.30;;
16792;SDS011;8513;42.662;23.350;2023-12-20T09:29:21;65.97;;;39.87;;
16792;SDS011;8513;42.662;23.350;2023-12-20T09:31:47;66.63;;;41.57;;
16792;SDS011;8513;42.662;23.350;2023-12-20T09:34:14;62.13;;;40.70;;
16792;SDS011;8513;42.662;23.350;2023-12-20T09:36:40;69.47;;;41.10;;
16792;SDS011;8513;42.662;23.350;2023-12-20T09:39:11;64.87;;;39.30;;
16792;SDS011;8513;42.662;23.350;2023-12-20T09:41:37;73.20;;;41.07;;
16792;SDS011;8513;42.662;23.350;2023-12-20T09:44:08;71.53;;;43.93;;
16792;SDS011;8513;42.662;23.350;2023-12-20T09:46:39;77.13;;;44.63;;
16792;SDS011;8513;42.662;23.350;2023-12-20T09:49:09;76.33;;;43.83;;
16792;SDS011;8513;42.662;23.350;2023-12-20T09:51:35;80.63;;;45.17;;
16792;SDS011;8513;42.662;23.350;2023-12-20T09:54:02;71.87;;;43.00;;
16792;SDS011;8513;42.662;23.350;2023-12-20T09:56:29;68.60;;;42.17;;
16792;SDS011;8513;42.662;23.350;2023-12-20T09:58:55;76.93;;;43.43;;
16792;SDS011;8513;42.662;23.350;2023-12-20T10:01:21;77.97;;;44.23;;
16792;SDS011;8513;42.662;23.350;2023-12-20T10:03:47;68.37;;;42.03;;
16792;SDS011;8513;42.662;23.350;2023-12-20T10:06:12;69.90;;;40.47;;
16792;SDS011;8513;42.662;23.350;2023-12-20T10:08:38;68.60;;;42.27;;
16792;SDS011;8513;42.662;23.350;2023-12-20T10:11:04;71.87;;;42.97;;
16792;SDS011;8513;42.662;23.350;2023-12-20T10:13:30;72.03;;;44.20;;
16792;SDS011;8513;42.662;23.350;2023-12-20T10:15:56;71.63;;;44.20;;
16792;SDS011;8513;42.662;23.350;2023-12-20T10:18:22;68.33;;;43.93;;
16792;SDS011;8513;42.662;23.350;2023-12-20T10:20:48;72.87;;;44.37;;
16792;SDS011;8513;42.662;23.350;2023-12-20T10:23:14;65.27;;;42.47;;
16792;SDS011;8513;42.662;23.350;2023-12-20T10:25:40;69.47;;;44.27;;
16792;SDS011;8513;42.662;23.350;2023-12-20T10:28:13;61.53;;;42.63;;
16792;SDS011;8513;42.662;23.350;2023-12-20T10:30:40;68.07;;;45.10;;
16792;SDS011;8513;42.662;23.350;2023-12-20T10:33:06;70.27;;;43.67;;
16792;SDS011;8513;42.662;23.350;2023-12-20T10:35:33;62.57;;;44.27;;
16792;SDS011;8513;42.662;23.350;2023-12-20T10:37:59;68.17;;;45.30;;
16792;SDS011;8513;42.662;23.350;2023-12-20T10:40:28;61.17;;;42.37;;
16792;SDS011;8513;42.662;23.350;2023-12-20T10:42:54;69.23;;;42.57;;
16792;SDS011;8513;42.662;23.350;2023-12-20T10:45:21;63.67;;;43.20;;
16792;SDS011;8513;42.662;23.350;2023-12-20T10:47:48;61.23;;;42.40;;
16792;SDS011;8513;42.662;23.350;2023-12-20T10:50:15;64.63;;;43.03;;
16792;SDS011;8513;42.662;23.350;2023-12-20T10:52:40;64.87;;;45.33;;
16792;SDS011;8513;42.662;23.350;2023-12-20T10:55:07;65.43;;;45.33;;
16792;SDS011;8513;42.662;23.350;2023-12-20T10:57:33;66.83;;;45.27;;
16792;SDS011;8513;42.662;23.350;2023-12-20T11:00:01;66.77;;;44.43;;
16792;SDS011;8513;42.662;23.350;2023-12-20T11:02:29;70.83;;;47.07;;
16792;SDS011;8513;42.662;23.350;2023-12-20T11:05:49;64.67;;;46.27;;
16792;SDS011;8513;42.662;23.350;2023-12-20T11:08:08;73.87;;;48.67;;
16792;SDS011;8513;42.662;23.350;2023-12-20T11:10:43;75.73;;;49.60;;
16792;SDS011;8513;42.662;23.350;2023-12-20T11:16:31;72.23;;;48.43;;
16792;SDS011;8513;42.662;23.350;2023-12-20T11:18:56;73.60;;;45.63;;
16792;SDS011;8513;42.662;23.350;2023-12-20T11:21:22;76.00;;;46.97;;
16792;SDS011;8513;42.662;23.350;2023-12-20T11:23:47;74.27;;;45.47;;
16792;SDS011;8513;42.662;23.350;2023-12-20T11:26:15;70.40;;;44.80;;
16792;SDS011;8513;42.662;23.350;2023-12-20T11:28:42;74.23;;;46.00;;
16792;SDS011;8513;42.662;23.350;2023-12-20T11:31:07;68.20;;;43.80;;
16792;SDS011;8513;42.662;23.350;2023-12-20T11:33:36;67.77;;;43.13;;
16792;SDS011;8513;42.662;23.350;2023-12-20T11:36:03;70.63;;;44.47;;
16792;SDS011;8513;42.662;23.350;2023-12-20T11:38:36;66.67;;;44.77;;
16792;SDS011;8513;42.662;23.350;2023-12-20T11:41:04;68.33;;;47.60;;
16792;SDS011;8513;42.662;23.350;2023-12-20T11:43:31;70.63;;;44.20;;
16792;SDS011;8513;42.662;23.350;2023-12-20T11:46:07;73.23;;;46.53;;
16792;SDS011;8513;42.662;23.350;2023-12-20T11:48:34;71.50;;;44.87;;
16792;SDS011;8513;42.662;23.350;2023-12-20T11:51:02;67.93;;;45.13;;
16792;SDS011;8513;42.662;23.350;2023-12-20T11:53:29;66.63;;;44.90;;
16792;SDS011;8513;42.662;23.350;2023-12-20T11:55:56;68.57;;;44.50;;
16792;SDS011;8513;42.662;23.350;2023-12-20T11:58:21;63.60;;;43.23;;
16792;SDS011;8513;42.662;23.350;2023-12-20T12:00:48;69.90;;;46.50;;
16792;SDS011;8513;42.662;23.350;2023-12-20T12:03:14;65.03;;;46.43;;
16792;SDS011;8513;42.662;23.350;2023-12-20T12:05:40;70.23;;;48.13;;
16792;SDS011;8513;42.662;23.350;2023-12-20T12:08:06;68.10;;;47.40;;
16792;SDS011;8513;42.662;23.350;2023-12-20T12:10:32;73.03;;;49.27;;
16792;SDS011;8513;42.662;23.350;2023-12-20T12:12:58;70.70;;;47.43;;
16792;SDS011;8513;42.662;23.350;2023-12-20T12:15:24;67.27;;;46.90;;
16792;SDS011;8513;42.662;23.350;2023-12-20T12:17:53;69.10;;;48.30;;
16792;SDS011;8513;42.662;23.350;2023-12-20T12:20:20;79.90;;;49.73;;
16792;SDS011;8513;42.662;23.350;2023-12-20T12:22:45;71.10;;;48.97;;
16792;SDS011;8513;42.662;23.350;2023-12-20T12:25:15;67.83;;;45.73;;
16792;SDS011;8513;42.662;23.350;2023-12-20T12:27:41;67.20;;;46.77;;
16792;SDS011;8513;42.662;23.350;2023-12-20T12:30:07;66.43;;;45.93;;
16792;SDS011;8513;42.662;23.350;2023-12-20T12:32:34;63.70;;;44.87;;
16792;SDS011;8513;42.662;23.350;2023-12-20T12:35:00;58.77;;;41.23;;
16792;SDS011;8513;42.662;23.350;2023-12-20T12:37:28;56.50;;;41.37;;
16792;SDS011;8513;42.662;23.350;2023-12-20T12:39:54;50.70;;;37.97;;
16792;SDS011;8513;42.662;23.350;2023-12-20T12:42:20;62.27;;;44.73;;
16792;SDS011;8513;42.662;23.350;2023-12-20T12:44:46;64.73;;;43.97;;
16792;SDS011;8513;42.662;23.350;2023-12-20T12:47:12;65.23;;;47.53;;
16792;SDS011;8513;42.662;23.350;2023-12-20T12:49:37;62.93;;;45.63;;
16792;SDS011;8513;42.662;23.350;2023-12-20T12:52:05;63.37;;;43.17;;
16792;SDS011;8513;42.662;23.350;2023-12-20T12:54:30;63.63;;;45.27;;
16792;SDS011;8513;42.662;23.350;2023-12-20T12:56:56;68.60;;;46.47;;
16792;SDS011;8513;42.662;23.350;2023-12-20T12:59:22;70.87;;;48.20;;
16792;SDS011;8513;42.662;23.350;2023-12-20T13:01:48;72.83;;;46.40;;
16792;SDS011;8513;42.662;23.350;2023-12-20T13:04:13;69.73;;;46.23;;
16792;SDS011;8513;42.662;23.350;2023-12-20T13:06:39;73.50;;;48.60;;
16792;SDS011;8513;42.662;23.350;2023-12-20T13:09:06;75.83;;;49.00;;
16792;SDS011;8513;42.662;23.350;2023-12-20T13:11:31;79.30;;;49.97;;
16792;SDS011;8513;42.662;23.350;2023-12-20T13:13:57;80.47;;;51.20;;
16792;SDS011;8513;42.662;23.350;2023-12-20T13:16:23;76.43;;;50.97;;
16792;SDS011;8513;42.662;23.350;2023-12-20T13:18:49;79.03;;;52.33;;
16792;SDS011;8513;42.662;23.350;2023-12-20T13:21:15;78.77;;;52.43;;
16792;SDS011;8513;42.662;23.350;2023-12-20T13:23:41;78.43;;;54.20;;
16792;SDS011;8513;42.662;23.350;2023-12-20T13:26:06;79.23;;;52.30;;
16792;SDS011;8513;42.662;23.350;2023-12-20T13:28:32;76.27;;;51.17;;
16792;SDS011;8513;42.662;23.350;2023-12-20T13:30:58;81.53;;;52.07;;
16792;SDS011;8513;42.662;23.350;2023-12-20T13:33:23;77.93;;;49.27;;
16792;SDS011;8513;42.662;23.350;2023-12-20T13:35:48;75.17;;;49.30;;
16792;SDS011;8513;42.662;23.350;2023-12-20T13:38:14;80.50;;;51.07;;
16792;SDS011;8513;42.662;23.350;2023-12-20T13:40:40;76.43;;;48.67;;
16792;SDS011;8513;42.662;23.350;2023-12-20T13:43:05;75.23;;;49.73;;
16792;SDS011;8513;42.662;23.350;2023-12-20T13:45:31;73.53;;;47.87;;
16792;SDS011;8513;42.662;23.350;2023-12-20T13:47:56;75.50;;;48.17;;
16792;SDS011;8513;42.662;23.350;2023-12-20T13:50:22;73.57;;;48.23;;
16792;SDS011;8513;42.662;23.350;2023-12-20T13:52:47;73.00;;;46.77;;
16792;SDS011;8513;42.662;23.350;2023-12-20T13:55:13;77.70;;;47.80;;
16792;SDS011;8513;42.662;23.350;2023-12-20T13:57:38;73.43;;;45.93;;
16792;SDS011;8513;42.662;23.350;2023-12-20T14:00:05;77.97;;;47.70;;
16792;SDS011;8513;42.662;23.350;2023-12-20T14:02:31;78.10;;;49.67;;
16792;SDS011;8513;42.662;23.350;2023-12-20T14:04:56;72.17;;;47.13;;
16792;SDS011;8513;42.662;23.350;2023-12-20T14:07:21;78.43;;;47.67;;
16792;SDS011;8513;42.662;23.350;2023-12-20T14:09:47;79.83;;;48.23;;
16792;SDS011;8513;42.662;23.350;2023-12-20T14:12:13;77.13;;;46.83;;
16792;SDS011;8513;42.662;23.350;2023-12-20T14:14:39;81.43;;;47.07;;
16792;SDS011;8513;42.662;23.350;2023-12-20T14:17:05;80.07;;;47.00;;